createdAt,value
2019-04-10T00:01:09.655Z,37.80
2019-04-10T00:03:41.973Z,35.50
2019-04-10T00:06:14.003Z,37.63
2019-04-10T00:08:42.934Z,36.40
2019-04-10T00:11:12.746Z,36.63
2019-04-10T00:13:42.947Z,36.30
2019-04-10T00:16:14.504Z,38.40
2019-04-10T00:18:46.295Z,35.17
2019-04-10T00:21:17.453Z,37.37
2019-04-10T00:23:47.588Z,39.40
2019-04-10T00:26:17.488Z,38.33
2019-04-10T00:28:48.374Z,37.13
2019-04-10T00:31:19.959Z,37.00
2019-04-10T00:33:49.891Z,38.53
2019-04-10T00:36:20.374Z,37.17
2019-04-10T00:38:50.365Z,37.73
2019-04-10T00:41:21.848Z,37.63
2019-04-10T00:43:52.130Z,38.57
2019-04-10T00:46:22.194Z,40.10
2019-04-10T00:48:52.313Z,38.77
2019-04-10T00:51:23.525Z,37.07
2019-04-10T00:53:53.867Z,37.30
2019-04-10T00:56:24.906Z,39.20
2019-04-10T00:58:57.031Z,39.93
2019-04-10T01:01:27.686Z,38.57
2019-04-10T01:03:58.653Z,38.83
2019-04-10T01:06:28.511Z,38.50
2019-04-10T01:09:02.615Z,38.10
2019-04-10T01:11:34.935Z,38.87
2019-04-10T01:14:05.444Z,38.80
2019-04-10T01:16:35.627Z,36.70
2019-04-10T01:19:05.813Z,37.17
2019-04-10T01:21:36.797Z,38.23
2019-04-10T01:24:06.768Z,36.30
2019-04-10T01:26:37.094Z,37.37
2019-04-10T01:29:07.234Z,36.07
2019-04-10T01:31:37.313Z,34.93
2019-04-10T01:34:07.461Z,34.97
2019-04-10T01:36:37.492Z,33.70
2019-04-10T01:39:10.488Z,33.80
2019-04-10T01:41:40.533Z,32.07
2019-04-10T01:44:13.469Z,32.80
2019-04-10T01:46:43.492Z,31.53
2019-04-10T01:49:15.574Z,32.27
2019-04-10T01:51:49.691Z,31.03
2019-04-10T01:54:19.678Z,30.07
2019-04-10T01:56:50.160Z,30.27
2019-04-10T01:59:21.702Z,29.40
2019-04-10T02:01:56.822Z,29.40
2019-04-10T02:04:26.863Z,29.30
2019-04-10T02:06:57.902Z,27.50
2019-04-10T02:09:27.937Z,28.10
2019-04-10T02:11:58.521Z,27.53
2019-04-10T02:14:28.511Z,27.00
2019-04-10T02:16:59.043Z,24.87
2019-04-10T02:19:28.939Z,25.80
2019-04-10T02:21:58.847Z,26.23
2019-04-10T02:24:29.357Z,25.03
2019-04-10T02:27:00.224Z,24.10
2019-04-10T02:29:30.155Z,24.27
2019-04-10T02:32:01.894Z,24.33
2019-04-10T02:34:32.752Z,24.70
2019-04-10T02:37:02.757Z,23.60
2019-04-10T02:39:40.137Z,23.53
2019-04-10T02:42:05.991Z,21.90
2019-04-10T02:44:37.559Z,22.23
2019-04-10T02:47:08.129Z,21.73
2019-04-10T02:49:40.391Z,22.13
2019-04-10T02:52:11.053Z,21.73
2019-04-10T02:54:41.838Z,21.60
2019-04-10T02:57:13.440Z,22.03
2019-04-10T02:59:45.230Z,19.80
2019-04-10T03:02:16.180Z,19.67
2019-04-10T03:04:46.570Z,19.13
2019-04-10T03:07:17.626Z,18.83
2019-04-10T03:10:00.448Z,19.73
2019-04-10T03:12:19.744Z,18.57
2019-04-10T03:14:50.015Z,19.80
2019-04-10T03:17:21.548Z,18.17
2019-04-10T03:19:51.860Z,19.17
2019-04-10T03:22:22.849Z,18.33
2019-04-10T03:24:52.732Z,18.10
2019-04-10T03:27:23.506Z,17.27
2019-04-10T03:29:53.893Z,17.33
2019-04-10T03:32:45.725Z,18.40
2019-04-10T03:35:18.986Z,18.27
2019-04-10T03:37:48.787Z,16.87
2019-04-10T03:40:19.514Z,17.23
2019-04-10T03:42:49.616Z,16.47
2019-04-10T03:45:20.254Z,17.27
2019-04-10T03:47:50.195Z,17.20
2019-04-10T03:50:20.130Z,18.73
2019-04-10T03:52:49.979Z,17.10
2019-04-10T03:55:20.900Z,17.33
2019-04-10T03:57:51.848Z,17.07
2019-04-10T04:00:22.738Z,16.67
2019-04-10T04:02:52.639Z,17.37
2019-04-10T04:05:22.497Z,17.13
2019-04-10T04:07:52.861Z,16.20
2019-04-10T04:10:22.639Z,16.70
2019-04-10T04:12:53.078Z,16.93
2019-04-10T04:15:23.944Z,17.53
2019-04-10T04:17:54.778Z,16.60
2019-04-10T04:20:24.681Z,16.17
2019-04-10T04:22:54.900Z,16.57
2019-04-10T04:25:24.786Z,18.07
2019-04-10T04:27:54.685Z,16.37
2019-04-10T04:30:24.697Z,16.60
2019-04-10T04:32:54.567Z,17.17
2019-04-10T04:35:24.401Z,17.27
2019-04-10T04:37:54.894Z,16.50
2019-04-10T04:40:25.816Z,16.90
2019-04-10T04:42:55.804Z,16.50
2019-04-10T04:45:25.719Z,16.40
2019-04-10T04:47:55.643Z,16.63
2019-04-10T04:50:25.538Z,18.17
2019-04-10T04:52:55.567Z,16.53
2019-04-10T04:55:26.073Z,16.17
2019-04-10T04:57:55.967Z,16.43
2019-04-10T05:00:25.828Z,17.50
2019-04-10T05:02:55.820Z,16.73
2019-04-10T05:05:25.653Z,16.70
2019-04-10T05:07:59.966Z,16.93
2019-04-10T05:10:27.037Z,16.13
2019-04-10T05:12:57.837Z,16.23
2019-04-10T05:15:28.971Z,17.30
2019-04-10T05:17:59.706Z,16.70
2019-04-10T05:20:42.214Z,17.70
2019-04-10T05:23:02.012Z,17.03
2019-04-10T05:25:32.200Z,17.10
2019-04-10T05:28:02.291Z,17.23
2019-04-10T05:30:32.182Z,16.57
2019-04-10T05:33:02.115Z,17.70
2019-04-10T05:35:32.098Z,16.30
2019-04-10T05:38:02.544Z,17.80
2019-04-10T05:40:33.273Z,17.37
2019-04-10T05:43:03.711Z,16.87
2019-04-10T05:45:33.927Z,17.27
2019-04-10T05:48:04.917Z,17.50
2019-04-10T05:50:35.669Z,16.77
2019-04-10T05:53:05.864Z,16.93
2019-04-10T05:55:36.512Z,17.87
2019-04-10T05:58:07.191Z,18.30
2019-04-10T06:00:37.116Z,17.83
2019-04-10T06:03:08.041Z,18.03
2019-04-10T06:05:38.288Z,18.43
2019-04-10T06:08:08.254Z,17.80
2019-04-10T06:10:39.438Z,17.83
2019-04-10T06:13:09.324Z,17.33
2019-04-10T06:15:39.315Z,17.27
2019-04-10T06:18:09.250Z,17.13
2019-04-10T06:20:40.157Z,18.80
2019-04-10T06:23:10.046Z,17.60
2019-04-10T06:25:41.931Z,17.60
2019-04-10T06:28:12.832Z,18.10
2019-04-10T06:30:43.862Z,17.73
2019-04-10T06:33:13.874Z,18.43
2019-04-10T06:35:44.687Z,18.03
2019-04-10T06:38:14.806Z,18.27
2019-04-10T06:40:46.017Z,18.87
2019-04-10T06:43:16.950Z,18.50
2019-04-10T06:45:48.214Z,17.40
2019-04-10T06:48:19.183Z,18.30
2019-04-10T06:50:49.184Z,19.43
2019-04-10T06:53:19.228Z,18.43
2019-04-10T06:55:49.219Z,18.40
2019-04-10T06:58:20.005Z,18.67
2019-04-10T07:00:53.217Z,18.60
2019-04-10T07:03:21.669Z,19.43
2019-04-10T07:06:03.235Z,19.37
2019-04-10T07:08:26.038Z,18.97
2019-04-10T07:11:04.718Z,19.27
2019-04-10T07:13:30.088Z,20.23
2019-04-10T07:16:02.066Z,20.03
2019-04-10T07:18:32.773Z,20.30
2019-04-10T07:21:04.226Z,19.33
2019-04-10T07:23:34.135Z,19.90
2019-04-10T07:26:04.055Z,19.90
2019-04-10T07:28:36.570Z,19.23
2019-04-10T07:31:08.456Z,19.87
2019-04-10T07:33:37.127Z,20.60
2019-04-10T07:36:10.958Z,20.13
2019-04-10T07:38:43.338Z,19.67
2019-04-10T07:41:19.739Z,19.80
2019-04-10T07:43:44.822Z,19.10
2019-04-10T07:46:15.242Z,19.63
2019-04-10T07:48:45.588Z,20.43
2019-04-10T07:51:15.552Z,19.57
2019-04-10T07:53:45.366Z,19.87
2019-04-10T07:56:19.281Z,18.57
2019-04-10T07:58:46.817Z,19.60
2019-04-10T08:01:16.767Z,19.50
2019-04-10T08:03:47.841Z,20.03
2019-04-10T08:06:17.951Z,19.40
2019-04-10T08:08:47.908Z,19.70
2019-04-10T08:11:17.943Z,18.37
2019-04-10T08:13:47.788Z,18.23
2019-04-10T08:16:17.615Z,18.87
2019-04-10T08:18:47.804Z,17.83
2019-04-10T08:21:17.789Z,18.93
2019-04-10T08:23:48.556Z,17.87
2019-04-10T08:26:18.597Z,18.47
2019-04-10T08:28:49.601Z,19.07
2019-04-10T08:31:21.205Z,19.63
2019-04-10T08:33:52.703Z,18.50
2019-04-10T08:36:23.514Z,19.17
2019-04-10T08:38:53.455Z,19.00
2019-04-10T08:41:25.443Z,17.87
2019-04-10T08:43:56.734Z,18.30
2019-04-10T08:46:26.733Z,18.67
2019-04-10T08:48:56.676Z,18.30
2019-04-10T08:51:31.080Z,17.90
2019-04-10T08:54:00.981Z,18.17
2019-04-10T08:56:30.819Z,19.17
2019-04-10T08:59:01.742Z,19.27
2019-04-10T09:01:31.843Z,19.93
2019-04-10T09:04:01.757Z,19.00
2019-04-10T09:06:31.699Z,18.50
2019-04-10T09:09:01.564Z,18.57
2019-04-10T09:11:33.988Z,19.43
2019-04-10T09:14:05.113Z,19.73
2019-04-10T09:16:35.029Z,19.23
2019-04-10T09:19:05.566Z,19.07
2019-04-10T09:21:36.413Z,17.57
2019-04-10T09:24:06.265Z,18.57
2019-04-10T09:26:36.233Z,18.13
2019-04-10T09:29:06.753Z,18.23
2019-04-10T09:31:37.773Z,18.03
2019-04-10T09:34:07.690Z,17.63
2019-04-10T09:36:37.603Z,17.77
2019-04-10T09:39:09.555Z,18.93
2019-04-10T09:41:39.619Z,17.90
2019-04-10T09:44:10.321Z,18.30
2019-04-10T09:46:40.803Z,19.40
2019-04-10T09:49:10.824Z,18.73
2019-04-10T09:51:40.645Z,18.50
2019-04-10T09:54:10.531Z,18.80
2019-04-10T09:56:40.472Z,17.90
2019-04-10T09:59:10.385Z,18.53
2019-04-10T10:01:40.189Z,17.67
2019-04-10T10:04:10.028Z,19.17
2019-04-10T10:06:40.335Z,19.27
2019-04-10T10:09:10.571Z,18.70
2019-04-10T10:11:40.644Z,18.03
2019-04-10T10:14:10.565Z,17.93
2019-04-10T10:16:40.387Z,18.97
2019-04-10T10:19:10.293Z,19.00
2019-04-10T10:21:40.802Z,18.23
2019-04-10T10:24:11.688Z,18.40
2019-04-10T10:26:44.203Z,18.33
2019-04-10T10:29:13.399Z,17.43
2019-04-10T10:31:44.371Z,17.63
2019-04-10T10:34:14.465Z,18.37
2019-04-10T10:36:46.666Z,19.37
2019-04-10T10:39:21.037Z,18.87
2019-04-10T10:41:52.609Z,17.97
2019-04-10T10:44:23.709Z,17.90
2019-04-10T10:46:53.670Z,18.77
2019-04-10T10:49:24.358Z,19.37
2019-04-10T10:51:55.177Z,19.33
2019-04-10T10:54:26.284Z,19.63
2019-04-10T10:56:56.606Z,18.37
2019-04-10T10:59:27.362Z,17.93
2019-04-10T11:01:57.733Z,16.70
2019-04-10T11:04:27.626Z,17.73
2019-04-10T11:07:00.457Z,17.30
2019-04-10T11:09:30.091Z,17.73
2019-04-10T11:12:00.183Z,16.87
2019-04-10T11:14:30.045Z,17.33
2019-04-10T11:17:01.118Z,17.30
2019-04-10T11:19:32.236Z,15.27
2019-04-10T11:22:03.110Z,15.30
2019-04-10T11:24:33.213Z,16.87
2019-04-10T11:27:04.195Z,16.57
2019-04-10T11:29:34.954Z,16.47
2019-04-10T11:32:06.641Z,16.03
2019-04-10T11:34:36.418Z,16.17
2019-04-10T11:37:21.648Z,16.30
2019-04-10T11:39:43.113Z,15.50
2019-04-10T11:42:10.150Z,15.20
2019-04-10T11:44:44.368Z,14.70
2019-04-10T11:47:12.494Z,14.87
2019-04-10T11:49:43.372Z,14.87
2019-04-10T11:52:15.741Z,14.83
2019-04-10T11:54:46.912Z,16.40
2019-04-10T11:57:19.813Z,15.17
2019-04-10T11:59:49.098Z,14.33
2019-04-10T12:02:22.908Z,14.70
2019-04-10T12:04:55.851Z,14.30
2019-04-10T12:07:52.630Z,15.57
2019-04-10T12:12:25.910Z,14.90
2019-04-10T12:14:56.191Z,14.17
2019-04-10T12:17:26.111Z,14.43
2019-04-10T12:19:56.309Z,15.37
2019-04-10T12:22:26.199Z,13.47
2019-04-10T12:24:56.432Z,14.57
2019-04-10T12:27:27.343Z,14.60
2019-04-10T12:29:57.355Z,13.67
2019-04-10T12:32:28.340Z,15.07
2019-04-10T12:34:58.427Z,14.73
2019-04-10T12:37:28.492Z,13.70
2019-04-10T12:39:58.519Z,14.67
2019-04-10T12:42:28.357Z,14.67
2019-04-10T12:44:58.255Z,14.33
2019-04-10T12:47:28.248Z,13.93
2019-04-10T12:49:58.328Z,14.30
2019-04-10T12:52:30.266Z,14.73
2019-04-10T12:55:00.232Z,14.73
2019-04-10T12:57:30.751Z,14.70
2019-04-10T13:00:04.124Z,13.87
2019-04-10T13:02:34.378Z,13.50
2019-04-10T13:05:05.070Z,14.00
2019-04-10T13:07:35.909Z,13.97
2019-04-10T13:10:08.602Z,13.37
2019-04-10T13:12:39.748Z,13.90
2019-04-10T13:15:10.921Z,13.27
2019-04-10T13:17:41.032Z,13.60
2019-04-10T13:20:12.126Z,13.90
2019-04-10T13:22:42.309Z,13.13
2019-04-10T13:25:12.531Z,13.97
2019-04-10T13:27:43.183Z,13.27
2019-04-10T13:30:14.652Z,13.80
2019-04-10T13:32:45.640Z,13.50
2019-04-10T13:35:15.835Z,13.93
2019-04-10T13:37:45.765Z,14.33
2019-04-10T13:40:15.850Z,13.93
2019-04-10T13:42:45.735Z,13.10
2019-04-10T13:45:17.914Z,12.67
2019-04-10T13:47:48.521Z,14.33
2019-04-10T13:50:19.570Z,14.60
2019-04-10T13:52:52.591Z,13.20
2019-04-10T13:55:22.589Z,12.87
2019-04-10T13:57:53.004Z,14.40
2019-04-10T14:00:40.652Z,13.53
2019-04-10T14:03:12.232Z,13.77
2019-04-10T14:05:43.327Z,13.17
2019-04-10T14:08:14.637Z,12.73
2019-04-10T14:10:44.761Z,12.57
2019-04-10T14:13:15.714Z,13.23
2019-04-10T14:15:46.386Z,13.43
2019-04-10T14:18:16.717Z,13.07
2019-04-10T14:20:47.834Z,12.90
2019-04-10T14:23:28.719Z,13.47
2019-04-10T14:26:42.003Z,13.43
2019-04-10T14:29:03.804Z,14.00
2019-04-10T14:31:40.576Z,13.70
2019-04-10T14:34:10.619Z,13.23
2019-04-10T14:36:40.534Z,13.83
2019-04-10T14:39:18.454Z,12.53
2019-04-10T14:41:46.962Z,13.97
2019-04-10T14:44:17.919Z,13.53
2019-04-10T14:46:47.865Z,13.50
2019-04-10T14:49:18.741Z,13.60
2019-04-10T14:51:49.743Z,13.37
2019-04-10T14:54:19.783Z,13.57
2019-04-10T14:56:50.510Z,13.63
2019-04-10T14:59:20.638Z,13.93
2019-04-10T15:01:51.214Z,13.60
2019-04-10T15:04:21.629Z,13.83
2019-04-10T15:06:51.606Z,14.00
2019-04-10T15:09:26.105Z,12.63
2019-04-10T15:11:55.584Z,13.03
2019-04-10T15:14:25.930Z,13.73
2019-04-10T15:17:01.799Z,13.27
2019-04-10T15:19:28.724Z,13.07
2019-04-10T15:22:01.091Z,13.33
2019-04-10T15:24:31.256Z,14.07
2019-04-10T15:27:01.369Z,13.83
2019-04-10T15:29:32.348Z,13.63
2019-04-10T15:32:02.333Z,13.90
2019-04-10T15:34:32.370Z,14.67
2019-04-10T15:37:02.541Z,14.00
2019-04-10T15:39:37.026Z,13.10
2019-04-10T15:42:04.282Z,14.07
2019-04-10T15:44:34.332Z,13.47
2019-04-10T15:47:14.509Z,12.90
2019-04-10T15:49:36.611Z,13.97
2019-04-10T15:52:07.745Z,12.53
2019-04-10T15:54:38.166Z,12.77
2019-04-10T15:57:08.761Z,12.80
2019-04-10T15:59:38.823Z,12.20
2019-04-10T16:02:08.781Z,12.63
2019-04-10T16:04:38.926Z,12.37
2019-04-10T16:07:09.825Z,13.03
2019-04-10T16:09:48.611Z,13.10
2019-04-10T16:12:14.595Z,12.77
2019-04-10T16:14:44.950Z,12.80
2019-04-10T16:17:35.541Z,12.93
2019-04-10T16:20:23.224Z,12.43
2019-04-10T16:23:08.262Z,12.63
2019-04-10T16:25:39.015Z,12.57
2019-04-10T16:28:11.015Z,12.33
2019-04-10T16:30:41.038Z,12.80
2019-04-10T16:33:12.104Z,12.33
2019-04-10T16:35:42.164Z,12.57
2019-04-10T16:38:12.171Z,12.40
2019-04-10T16:40:42.123Z,12.83
2019-04-10T16:43:12.299Z,12.37
2019-04-10T16:45:42.499Z,13.10
2019-04-10T16:48:12.596Z,13.03
2019-04-10T16:50:43.392Z,12.97
2019-04-10T16:53:14.542Z,12.57
2019-04-10T16:55:45.041Z,12.90
2019-04-10T16:58:15.884Z,13.40
2019-04-10T17:00:45.911Z,12.60
2019-04-10T17:03:15.878Z,13.50
2019-04-10T17:05:46.081Z,13.73
2019-04-10T17:08:16.211Z,12.67
2019-04-10T17:10:48.301Z,12.67
2019-04-10T17:13:18.365Z,13.03
2019-04-10T17:15:50.262Z,12.30
2019-04-10T17:18:21.554Z,12.10
2019-04-10T17:20:52.832Z,13.00
2019-04-10T17:23:22.948Z,12.43
2019-04-10T17:25:52.959Z,12.97
2019-04-10T17:28:23.662Z,12.77
2019-04-10T17:30:55.225Z,13.20
2019-04-10T17:33:26.722Z,12.50
2019-04-10T17:35:58.032Z,13.80
2019-04-10T17:38:28.792Z,13.73
2019-04-10T17:41:00.780Z,13.47
2019-04-10T17:43:30.473Z,13.87
2019-04-10T17:46:00.838Z,14.17
2019-04-10T17:48:31.227Z,13.30
2019-04-10T17:51:01.644Z,13.00
2019-04-10T17:53:31.847Z,13.33
2019-04-10T17:56:02.147Z,13.40
2019-04-10T17:58:32.174Z,13.83
2019-04-10T18:01:04.768Z,14.07
2019-04-10T18:03:46.134Z,14.03
2019-04-10T18:06:06.901Z,13.23
2019-04-10T18:08:36.974Z,13.80
2019-04-10T18:11:07.791Z,13.13
2019-04-10T18:13:38.479Z,12.50
2019-04-10T18:16:08.584Z,12.93
2019-04-10T18:18:38.551Z,12.47
2019-04-10T18:21:08.640Z,12.43
2019-04-10T18:23:41.818Z,12.80
2019-04-10T18:26:12.071Z,12.63
2019-04-10T18:28:42.017Z,12.13
2019-04-10T18:31:12.491Z,12.43
2019-04-10T18:33:46.855Z,13.30
2019-04-10T18:36:17.532Z,12.63
2019-04-10T18:38:47.982Z,12.57
2019-04-10T18:41:18.040Z,12.87
2019-04-10T18:43:48.666Z,13.27
2019-04-10T18:46:20.783Z,12.37
2019-04-10T18:48:51.370Z,12.20
2019-04-10T18:51:21.700Z,13.17
2019-04-10T18:53:51.816Z,12.53
2019-04-10T18:56:21.888Z,12.40
2019-04-10T18:59:02.641Z,12.33
2019-04-10T19:01:49.473Z,12.97
2019-04-10T19:04:25.553Z,12.37
2019-04-10T19:07:00.745Z,12.07
2019-04-10T19:09:33.760Z,12.13
2019-04-10T19:12:04.458Z,13.33
2019-04-10T19:14:36.501Z,13.27
2019-04-10T19:17:08.947Z,12.80
2019-04-10T19:19:42.161Z,11.97
2019-04-10T19:22:13.132Z,12.13
2019-04-10T19:24:44.107Z,12.43
2019-04-10T19:27:14.286Z,11.50
2019-04-10T19:29:44.552Z,11.47
2019-04-10T19:32:24.616Z,11.40
2019-04-10T19:34:54.867Z,12.50
2019-04-10T19:37:24.961Z,12.77
2019-04-10T19:39:54.958Z,10.83
2019-04-10T19:42:25.066Z,10.93
2019-04-10T19:44:55.601Z,11.67
2019-04-10T19:47:26.329Z,11.60
2019-04-10T19:49:57.132Z,12.07
2019-04-10T19:52:28.553Z,11.03
2019-04-10T19:54:59.621Z,11.27
2019-04-10T19:57:29.578Z,11.33
2019-04-10T19:59:59.980Z,10.57
2019-04-10T20:02:31.022Z,10.67
2019-04-10T20:05:01.237Z,11.30
2019-04-10T20:07:33.229Z,10.40
2019-04-10T20:10:03.923Z,11.37
2019-04-10T20:12:36.967Z,11.03
2019-04-10T20:15:08.230Z,11.03
2019-04-10T20:17:38.375Z,10.20
2019-04-10T20:20:08.606Z,10.17
2019-04-10T20:22:39.134Z,9.53
2019-04-10T20:25:10.353Z,9.97
2019-04-10T20:27:40.387Z,9.60
2019-04-10T20:30:11.854Z,10.47
2019-04-10T20:32:42.117Z,10.37
2019-04-10T20:35:12.137Z,11.00
2019-04-10T20:37:42.945Z,11.17
2019-04-10T20:40:13.860Z,10.67
2019-04-10T20:42:44.610Z,11.37
2019-04-10T20:45:15.762Z,10.40
2019-04-10T20:47:46.832Z,11.00
2019-04-10T20:50:17.533Z,10.20
2019-04-10T20:52:47.659Z,10.40
2019-04-10T20:55:17.602Z,10.13
2019-04-10T20:57:47.886Z,10.07
2019-04-10T21:00:28.555Z,10.20
2019-04-10T21:02:58.652Z,10.13
2019-04-10T21:05:28.521Z,10.83
2019-04-10T21:07:58.440Z,10.57
2019-04-10T21:10:29.056Z,9.67
2019-04-10T21:13:01.064Z,11.40
2019-04-10T21:15:31.074Z,10.80
2019-04-10T21:18:01.099Z,11.03
2019-04-10T21:20:32.332Z,10.70
2019-04-10T21:23:03.431Z,11.50
2019-04-10T21:25:33.505Z,11.03
2019-04-10T21:28:04.548Z,11.60
2019-04-10T21:31:01.086Z,11.20
2019-04-10T21:33:49.979Z,11.97
2019-04-10T21:36:20.595Z,11.50
2019-04-10T21:38:50.677Z,11.80
2019-04-10T21:41:20.716Z,12.03
2019-04-10T21:43:51.157Z,11.93
2019-04-10T21:46:22.250Z,12.07
2019-04-10T21:48:52.125Z,12.33
2019-04-10T21:51:23.180Z,12.37
2019-04-10T21:53:53.826Z,11.93
2019-04-10T21:56:24.507Z,13.13
2019-04-10T21:58:56.887Z,12.23
2019-04-10T22:01:28.366Z,13.30
2019-04-10T22:03:58.685Z,12.73
2019-04-10T22:06:47.095Z,13.37
2019-04-10T22:09:34.949Z,13.60
2019-04-10T22:12:24.033Z,13.00
2019-04-10T22:14:44.266Z,13.13
2019-04-10T22:17:14.957Z,13.03
2019-04-10T22:19:45.220Z,13.20
2019-04-10T22:22:15.222Z,13.73
2019-04-10T22:24:46.242Z,13.60
2019-04-10T22:27:17.043Z,14.30
2019-04-10T22:29:47.008Z,13.23
2019-04-10T22:32:16.929Z,13.40
2019-04-10T22:34:46.859Z,14.20
2019-04-10T22:37:16.989Z,14.60
2019-04-10T22:39:48.190Z,13.23
2019-04-10T22:42:19.015Z,14.77
2019-04-10T22:44:49.787Z,14.50
2019-04-10T22:47:19.682Z,14.27
2019-04-10T22:49:49.570Z,14.40
2019-04-10T22:52:19.608Z,14.50
2019-04-10T22:54:50.808Z,14.60
2019-04-10T22:57:21.053Z,14.67
2019-04-10T22:59:51.211Z,14.23
2019-04-10T23:02:21.474Z,14.80
2019-04-10T23:04:51.602Z,14.27
2019-04-10T23:07:21.935Z,14.43
2019-04-10T23:09:52.947Z,14.80
2019-04-10T23:12:22.785Z,14.73
2019-04-10T23:14:53.227Z,14.70
2019-04-10T23:17:24.314Z,15.87
2019-04-10T23:19:55.327Z,16.40
2019-04-10T23:22:25.309Z,15.70
2019-04-10T23:24:56.039Z,15.63
2019-04-10T23:27:26.761Z,14.70
2019-04-10T23:29:56.953Z,15.20
2019-04-10T23:32:27.079Z,15.47
2019-04-10T23:34:57.022Z,15.33
2019-04-10T23:37:27.030Z,15.63
2019-04-10T23:39:56.854Z,15.33
2019-04-10T23:42:28.186Z,14.93
2019-04-10T23:44:59.500Z,15.10
2019-04-10T23:47:29.468Z,15.73
2019-04-10T23:49:59.694Z,15.23
2019-04-10T23:52:29.768Z,15.43
2019-04-10T23:54:59.746Z,14.80
2019-04-10T23:57:31.518Z,14.73
